sensor_id;sensor_type;location;lat;lon;timestamp;pressure;altitude;pressure_sealevel;temperature;humidity
54308;BME280;40208;39.778;2.710;2022-07-23T00:00:59;101490.00;;;26.35;100.00
54308;BME280;40208;39.778;2.710;2022-07-23T00:03:44;101499.84;;;26.46;100.00
54308;BME280;40208;39.778;2.710;2022-07-23T00:06:29;101502.84;;;26.43;100.00
54308;BME280;40208;39.778;2.710;2022-07-23T00:09:14;101444.97;;;26.05;100.00
54308;BME280;40208;39.778;2.710;2022-07-23T00:11:59;101399.38;;;25.71;100.00
54308;BME280;40208;39.778;2.710;2022-07-23T00:14:43;101482.72;;;26.18;100.00
54308;BME280;40208;39.778;2.710;2022-07-23T00:17:28;101507.38;;;26.34;100.00
54308;BME280;40208;39.778;2.710;2022-07-23T00:20:13;101438.91;;;25.93;100.00
54308;BME280;40208;39.778;2.710;2022-07-23T00:22:58;101483.00;;;26.15;100.00
54308;BME280;40208;39.778;2.710;2022-07-23T00:25:43;101501.53;;;26.29;100.00
54308;BME280;40208;39.778;2.710;2022-07-23T00:28:29;101505.13;;;26.30;100.00
54308;BME280;40208;39.778;2.710;2022-07-23T00:31:14;101499.03;;;26.18;100.00
54308;BME280;40208;39.778;2.710;2022-07-23T00:33:59;101520.16;;;26.24;100.00
54308;BME280;40208;39.778;2.710;2022-07-23T00:36:45;101503.38;;;26.11;100.00
54308;BME280;40208;39.778;2.710;2022-07-23T00:39:30;101524.53;;;26.17;100.00
54308;BME280;40208;39.778;2.710;2022-07-23T00:42:15;101488.44;;;25.97;100.00
54308;BME280;40208;39.778;2.710;2022-07-23T00:45:00;101495.75;;;25.96;100.00
54308;BME280;40208;39.778;2.710;2022-07-23T00:47:45;101477.72;;;25.86;100.00
54308;BME280;40208;39.778;2.710;2022-07-23T00:50:30;101542.47;;;26.10;100.00
54308;BME280;40208;39.778;2.710;2022-07-23T00:53:15;101512.31;;;26.03;100.00
54308;BME280;40208;39.778;2.710;2022-07-23T00:56:00;101463.38;;;25.66;100.00
54308;BME280;40208;39.778;2.710;2022-07-23T00:58:45;101539.59;;;26.11;100.00
54308;BME280;40208;39.778;2.710;2022-07-23T01:01:30;101497.06;;;25.83;100.00
54308;BME280;40208;39.778;2.710;2022-07-23T01:04:16;101555.59;;;26.14;100.00
54308;BME280;40208;39.778;2.710;2022-07-23T01:07:01;101553.59;;;26.16;100.00
54308;BME280;40208;39.778;2.710;2022-07-23T01:09:45;101507.78;;;25.94;100.00
54308;BME280;40208;39.778;2.710;2022-07-23T01:12:30;101546.47;;;26.15;100.00
54308;BME280;40208;39.778;2.710;2022-07-23T01:15:15;101544.72;;;26.14;100.00
54308;BME280;40208;39.778;2.710;2022-07-23T01:18:00;101544.78;;;26.05;100.00
54308;BME280;40208;39.778;2.710;2022-07-23T01:20:45;101538.63;;;26.02;100.00
54308;BME280;40208;39.778;2.710;2022-07-23T01:23:30;101536.69;;;25.95;100.00
54308;BME280;40208;39.778;2.710;2022-07-23T01:26:15;101522.41;;;25.83;100.00
54308;BME280;40208;39.778;2.710;2022-07-23T01:29:01;101530.69;;;25.81;100.00
54308;BME280;40208;39.778;2.710;2022-07-23T01:31:46;101408.72;;;25.04;100.00
54308;BME280;40208;39.778;2.710;2022-07-23T01:34:31;101523.59;;;25.71;100.00
54308;BME280;40208;39.778;2.710;2022-07-23T01:37:16;101412.88;;;24.98;100.00
54308;BME280;40208;39.778;2.710;2022-07-23T01:40:00;101528.47;;;25.67;100.00
54308;BME280;40208;39.778;2.710;2022-07-23T01:42:45;101527.94;;;25.64;100.00
54308;BME280;40208;39.778;2.710;2022-07-23T01:45:30;101524.50;;;25.62;100.00
54308;BME280;40208;39.778;2.710;2022-07-23T01:48:15;101484.56;;;25.34;100.00
54308;BME280;40208;39.778;2.710;2022-07-23T01:51:02;101497.72;;;25.39;100.00
54308;BME280;40208;39.778;2.710;2022-07-23T01:53:46;101524.09;;;25.56;100.00
54308;BME280;40208;39.778;2.710;2022-07-23T01:56:31;101410.34;;;24.87;100.00
54308;BME280;40208;39.778;2.710;2022-07-23T01:59:16;101526.25;;;25.53;100.00
54308;BME280;40208;39.778;2.710;2022-07-23T02:02:01;101447.63;;;24.94;100.00
54308;BME280;40208;39.778;2.710;2022-07-23T02:04:48;101537.41;;;25.50;100.00
54308;BME280;40208;39.778;2.710;2022-07-23T02:07:33;101530.56;;;25.46;100.00
54308;BME280;40208;39.778;2.710;2022-07-23T02:10:18;101528.72;;;25.36;100.00
54308;BME280;40208;39.778;2.710;2022-07-23T02:13:02;101533.31;;;25.36;100.00
54308;BME280;40208;39.778;2.710;2022-07-23T02:15:47;101538.75;;;25.36;100.00
54308;BME280;40208;39.778;2.710;2022-07-23T02:18:32;101497.75;;;25.10;100.00
54308;BME280;40208;39.778;2.710;2022-07-23T02:21:17;101537.22;;;25.24;100.00
54308;BME280;40208;39.778;2.710;2022-07-23T02:24:03;101525.78;;;25.20;100.00
54308;BME280;40208;39.778;2.710;2022-07-23T02:26:47;101525.09;;;25.18;100.00
54308;BME280;40208;39.778;2.710;2022-07-23T02:29:32;101504.06;;;25.01;100.00
54308;BME280;40208;39.778;2.710;2022-07-23T02:32:17;101492.66;;;24.87;100.00
54308;BME280;40208;39.778;2.710;2022-07-23T02:35:03;101527.50;;;25.11;100.00
54308;BME280;40208;39.778;2.710;2022-07-23T02:37:48;101527.34;;;25.03;100.00
54308;BME280;40208;39.778;2.710;2022-07-23T02:40:33;101511.78;;;24.95;100.00
54308;BME280;40208;39.778;2.710;2022-07-23T02:43:18;101508.50;;;24.92;100.00
54308;BME280;40208;39.778;2.710;2022-07-23T02:46:03;101514.78;;;24.92;100.00
54308;BME280;40208;39.778;2.710;2022-07-23T02:48:48;101508.94;;;24.87;100.00
54308;BME280;40208;39.778;2.710;2022-07-23T02:51:33;101504.38;;;24.78;100.00
54308;BME280;40208;39.778;2.710;2022-07-23T02:54:18;101498.09;;;24.78;100.00
54308;BME280;40208;39.778;2.710;2022-07-23T02:57:04;101444.63;;;24.39;100.00
54308;BME280;40208;39.778;2.710;2022-07-23T02:59:49;101504.69;;;24.75;100.00
54308;BME280;40208;39.778;2.710;2022-07-23T03:02:33;101491.25;;;24.64;100.00
54308;BME280;40208;39.778;2.710;2022-07-23T03:05:18;101492.66;;;24.58;100.00
54308;BME280;40208;39.778;2.710;2022-07-23T03:08:03;101493.53;;;24.59;100.00
54308;BME280;40208;39.778;2.710;2022-07-23T03:10:48;101495.13;;;24.51;100.00
54308;BME280;40208;39.778;2.710;2022-07-23T03:13:33;101491.53;;;24.51;100.00
54308;BME280;40208;39.778;2.710;2022-07-23T03:16:17;101508.53;;;24.53;100.00
54308;BME280;40208;39.778;2.710;2022-07-23T03:19:02;101497.63;;;24.43;100.00
54308;BME280;40208;39.778;2.710;2022-07-23T03:21:47;101500.22;;;24.45;100.00
54308;BME280;40208;39.778;2.710;2022-07-23T03:24:32;101383.06;;;23.71;100.00
54308;BME280;40208;39.778;2.710;2022-07-23T03:27:35;101500.34;;;24.33;100.00
54308;BME280;40208;39.778;2.710;2022-07-23T03:30:20;101506.63;;;24.34;100.00
54308;BME280;40208;39.778;2.710;2022-07-23T03:33:05;101470.63;;;24.12;100.00
54308;BME280;40208;39.778;2.710;2022-07-23T03:35:50;101408.72;;;23.67;100.00
54308;BME280;40208;39.778;2.710;2022-07-23T03:38:35;101494.91;;;24.24;100.00
54308;BME280;40208;39.778;2.710;2022-07-23T03:41:20;101504.31;;;24.20;100.00
54308;BME280;40208;39.778;2.710;2022-07-23T03:44:05;101501.59;;;24.10;100.00
54308;BME280;40208;39.778;2.710;2022-07-23T03:46:49;101500.16;;;24.06;100.00
54308;BME280;40208;39.778;2.710;2022-07-23T03:49:34;101505.00;;;24.02;100.00
54308;BME280;40208;39.778;2.710;2022-07-23T03:52:19;101510.00;;;23.97;100.00
54308;BME280;40208;39.778;2.710;2022-07-23T03:55:04;101369.63;;;23.10;100.00
54308;BME280;40208;39.778;2.710;2022-07-23T03:57:49;101505.13;;;23.91;100.00
54308;BME280;40208;39.778;2.710;2022-07-23T04:00:34;101410.47;;;23.28;100.00
54308;BME280;40208;39.778;2.710;2022-07-23T04:03:19;101510.19;;;23.75;100.00
54308;BME280;40208;39.778;2.710;2022-07-23T04:06:04;101399.25;;;23.02;100.00
54308;BME280;40208;39.778;2.710;2022-07-23T04:08:48;101459.41;;;23.36;100.00
54308;BME280;40208;39.778;2.710;2022-07-23T04:11:33;101515.00;;;23.61;100.00
54308;BME280;40208;39.778;2.710;2022-07-23T04:14:18;101519.53;;;23.61;100.00
54308;BME280;40208;39.778;2.710;2022-07-23T04:17:03;101492.50;;;23.40;100.00
54308;BME280;40208;39.778;2.710;2022-07-23T04:19:48;101522.41;;;23.59;100.00
54308;BME280;40208;39.778;2.710;2022-07-23T04:22:33;101493.75;;;23.36;100.00
54308;BME280;40208;39.778;2.710;2022-07-23T04:25:17;101528.34;;;23.53;100.00
54308;BME280;40208;39.778;2.710;2022-07-23T04:28:02;101536.47;;;23.53;100.00
54308;BME280;40208;39.778;2.710;2022-07-23T04:30:47;101522.03;;;23.43;100.00
54308;BME280;40208;39.778;2.710;2022-07-23T04:33:32;101533.44;;;23.46;100.00
54308;BME280;40208;39.778;2.710;2022-07-23T04:36:17;101541.28;;;23.40;100.00
54308;BME280;40208;39.778;2.710;2022-07-23T04:39:02;101537.09;;;23.36;100.00
54308;BME280;40208;39.778;2.710;2022-07-23T04:41:47;101534.91;;;23.29;100.00
54308;BME280;40208;39.778;2.710;2022-07-23T04:44:32;101537.38;;;23.33;100.00
54308;BME280;40208;39.778;2.710;2022-07-23T04:47:17;101282.03;;;21.75;100.00
54308;BME280;40208;39.778;2.710;2022-07-23T04:50:02;101321.41;;;21.89;100.00
54308;BME280;40208;39.778;2.710;2022-07-23T04:52:47;101540.88;;;23.23;100.00
54308;BME280;40208;39.778;2.710;2022-07-23T04:55:32;101541.28;;;23.19;100.00
54308;BME280;40208;39.778;2.710;2022-07-23T04:58:17;101526.41;;;23.13;100.00
54308;BME280;40208;39.778;2.710;2022-07-23T05:01:02;101530.84;;;23.14;100.00
54308;BME280;40208;39.778;2.710;2022-07-23T05:03:47;101482.88;;;22.84;100.00
54308;BME280;40208;39.778;2.710;2022-07-23T05:06:33;101539.22;;;23.11;100.00
54308;BME280;40208;39.778;2.710;2022-07-23T05:09:17;101472.38;;;22.70;100.00
54308;BME280;40208;39.778;2.710;2022-07-23T05:12:03;101543.19;;;23.07;100.00
54308;BME280;40208;39.778;2.710;2022-07-23T05:14:48;101516.94;;;22.86;100.00
54308;BME280;40208;39.778;2.710;2022-07-23T05:17:33;101548.63;;;22.96;100.00
54308;BME280;40208;39.778;2.710;2022-07-23T05:20:18;101533.06;;;22.88;100.00
54308;BME280;40208;39.778;2.710;2022-07-23T05:23:03;101436.31;;;22.27;100.00
54308;BME280;40208;39.778;2.710;2022-07-23T05:25:48;101545.19;;;22.94;100.00
54308;BME280;40208;39.778;2.710;2022-07-23T05:28:34;101380.22;;;21.97;100.00
54308;BME280;40208;39.778;2.710;2022-07-23T05:31:19;101529.34;;;22.89;100.00
54308;BME280;40208;39.778;2.710;2022-07-23T05:34:03;101537.63;;;22.88;100.00
54308;BME280;40208;39.778;2.710;2022-07-23T05:36:48;101542.66;;;22.92;100.00
54308;BME280;40208;39.778;2.710;2022-07-23T05:39:33;101508.16;;;22.73;100.00
54308;BME280;40208;39.778;2.710;2022-07-23T05:42:18;101500.44;;;22.69;100.00
54308;BME280;40208;39.778;2.710;2022-07-23T05:45:04;101412.25;;;22.13;100.00
54308;BME280;40208;39.778;2.710;2022-07-23T05:47:49;101540.44;;;22.86;100.00
54308;BME280;40208;39.778;2.710;2022-07-23T05:50:33;101517.78;;;22.66;100.00
54308;BME280;40208;39.778;2.710;2022-07-23T05:53:18;101479.28;;;22.41;100.00
54308;BME280;40208;39.778;2.710;2022-07-23T05:56:03;101500.09;;;22.62;100.00
54308;BME280;40208;39.778;2.710;2022-07-23T05:58:48;101507.81;;;22.67;100.00
54308;BME280;40208;39.778;2.710;2022-07-23T06:01:33;101535.50;;;22.91;100.00
54308;BME280;40208;39.778;2.710;2022-07-23T06:04:18;101544.56;;;23.01;100.00
54308;BME280;40208;39.778;2.710;2022-07-23T06:07:03;101548.63;;;23.07;100.00
54308;BME280;40208;39.778;2.710;2022-07-23T06:09:48;101519.13;;;22.93;100.00
54308;BME280;40208;39.778;2.710;2022-07-23T06:12:33;101552.06;;;23.09;100.00
54308;BME280;40208;39.778;2.710;2022-07-23T06:15:18;101547.81;;;23.16;100.00
54308;BME280;40208;39.778;2.710;2022-07-23T06:18:03;101521.56;;;22.96;100.00
54308;BME280;40208;39.778;2.710;2022-07-23T06:20:48;101551.00;;;23.21;100.00
54308;BME280;40208;39.778;2.710;2022-07-23T06:23:33;101552.44;;;23.25;100.00
54308;BME280;40208;39.778;2.710;2022-07-23T06:26:17;101532.56;;;23.15;100.00
54308;BME280;40208;39.778;2.710;2022-07-23T06:29:02;101548.47;;;23.29;100.00
54308;BME280;40208;39.778;2.710;2022-07-23T06:31:47;101551.84;;;23.43;100.00
54308;BME280;40208;39.778;2.710;2022-07-23T06:34:33;101544.88;;;23.50;100.00
54308;BME280;40208;39.778;2.710;2022-07-23T06:37:18;101541.09;;;23.62;100.00
54308;BME280;40208;39.778;2.710;2022-07-23T06:40:03;101519.41;;;23.62;100.00
54308;BME280;40208;39.778;2.710;2022-07-23T06:42:48;101511.41;;;23.61;100.00
54308;BME280;40208;39.778;2.710;2022-07-23T06:45:33;101539.94;;;23.86;100.00
54308;BME280;40208;39.778;2.710;2022-07-23T06:48:17;101544.25;;;23.98;100.00
54308;BME280;40208;39.778;2.710;2022-07-23T06:51:03;101539.97;;;24.05;100.00
54308;BME280;40208;39.778;2.710;2022-07-23T06:53:48;101533.16;;;24.11;100.00
54308;BME280;40208;39.778;2.710;2022-07-23T06:56:33;101538.31;;;24.24;100.00
54308;BME280;40208;39.778;2.710;2022-07-23T06:59:18;101494.63;;;24.17;100.00
54308;BME280;40208;39.778;2.710;2022-07-23T07:02:03;101500.03;;;24.27;100.00
54308;BME280;40208;39.778;2.710;2022-07-23T07:04:48;101522.91;;;24.44;100.00
54308;BME280;40208;39.778;2.710;2022-07-23T07:07:34;101303.84;;;23.29;100.00
54308;BME280;40208;39.778;2.710;2022-07-23T07:10:19;101486.38;;;24.48;100.00
54308;BME280;40208;39.778;2.710;2022-07-23T07:13:04;101512.81;;;24.75;100.00
54308;BME280;40208;39.778;2.710;2022-07-23T07:15:49;101473.09;;;24.64;100.00
54308;BME280;40208;39.778;2.710;2022-07-23T07:18:34;101475.94;;;24.72;100.00
54308;BME280;40208;39.778;2.710;2022-07-23T07:21:19;101529.50;;;25.09;100.00
54308;BME280;40208;39.778;2.710;2022-07-23T07:24:04;101530.06;;;25.23;100.00
54308;BME280;40208;39.778;2.710;2022-07-23T07:26:49;101534.78;;;25.30;100.00
54308;BME280;40208;39.778;2.710;2022-07-23T07:29:34;101421.50;;;24.74;100.00
54308;BME280;40208;39.778;2.710;2022-07-23T07:32:18;101503.72;;;25.33;100.00
54308;BME280;40208;39.778;2.710;2022-07-23T07:35:05;101421.00;;;24.98;100.00
54308;BME280;40208;39.778;2.710;2022-07-23T07:37:50;101532.31;;;25.74;100.00
54308;BME280;40208;39.778;2.710;2022-07-23T07:40:35;101524.41;;;25.81;100.00
54308;BME280;40208;39.778;2.710;2022-07-23T07:43:20;101535.38;;;25.99;100.00
54308;BME280;40208;39.778;2.710;2022-07-23T07:46:05;101510.78;;;25.91;100.00
54308;BME280;40208;39.778;2.710;2022-07-23T07:48:54;101475.81;;;25.68;100.00
54308;BME280;40208;39.778;2.710;2022-07-23T07:51:38;101497.69;;;26.04;100.00
54308;BME280;40208;39.778;2.710;2022-07-23T07:54:23;101494.06;;;26.13;100.00
54308;BME280;40208;39.778;2.710;2022-07-23T07:57:08;101366.69;;;25.35;100.00
54308;BME280;40208;39.778;2.710;2022-07-23T07:59:53;101538.31;;;26.51;100.00
54308;BME280;40208;39.778;2.710;2022-07-23T08:02:42;101526.59;;;26.51;100.00
54308;BME280;40208;39.778;2.710;2022-07-23T08:05:28;101537.97;;;26.64;100.00
54308;BME280;40208;39.778;2.710;2022-07-23T08:08:13;101496.69;;;26.41;100.00
54308;BME280;40208;39.778;2.710;2022-07-23T08:11:01;101321.22;;;25.37;100.00
54308;BME280;40208;39.778;2.710;2022-07-23T08:13:46;101527.53;;;26.77;100.00
54308;BME280;40208;39.778;2.710;2022-07-23T08:16:30;101540.91;;;26.89;100.00
54308;BME280;40208;39.778;2.710;2022-07-23T08:19:15;101543.69;;;26.97;100.00
54308;BME280;40208;39.778;2.710;2022-07-23T08:22:00;101527.44;;;26.87;100.00
54308;BME280;40208;39.778;2.710;2022-07-23T08:24:45;101482.31;;;26.67;100.00
54308;BME280;40208;39.778;2.710;2022-07-23T08:27:29;101528.75;;;27.01;100.00
54308;BME280;40208;39.778;2.710;2022-07-23T08:30:15;101544.34;;;27.17;100.00
54308;BME280;40208;39.778;2.710;2022-07-23T08:33:07;101549.06;;;27.24;100.00
54308;BME280;40208;39.778;2.710;2022-07-23T08:35:55;101409.28;;;26.44;100.00
54308;BME280;40208;39.778;2.710;2022-07-23T08:38:40;101537.97;;;27.26;100.00
54308;BME280;40208;39.778;2.710;2022-07-23T08:41:25;101510.53;;;27.19;100.00
54308;BME280;40208;39.778;2.710;2022-07-23T08:44:10;101478.84;;;27.00;100.00
54308;BME280;40208;39.778;2.710;2022-07-23T08:46:54;101549.75;;;27.53;100.00
54308;BME280;40208;39.778;2.710;2022-07-23T08:49:39;101452.63;;;26.99;100.00
54308;BME280;40208;39.778;2.710;2022-07-23T08:52:26;101531.81;;;27.50;100.00
54308;BME280;40208;39.778;2.710;2022-07-23T08:55:11;101505.84;;;27.38;100.00
54308;BME280;40208;39.778;2.710;2022-07-23T08:57:55;101538.38;;;27.65;100.00
54308;BME280;40208;39.778;2.710;2022-07-23T09:00:41;101462.13;;;27.21;100.00
54308;BME280;40208;39.778;2.710;2022-07-23T09:03:29;101552.94;;;27.82;100.00
54308;BME280;40208;39.778;2.710;2022-07-23T09:06:14;101515.88;;;27.63;100.00
54308;BME280;40208;39.778;2.710;2022-07-23T09:09:16;101544.50;;;27.94;100.00
54308;BME280;40208;39.778;2.710;2022-07-23T09:12:03;101547.25;;;27.94;100.00
54308;BME280;40208;39.778;2.710;2022-07-23T09:14:48;101560.25;;;28.16;100.00
54308;BME280;40208;39.778;2.710;2022-07-23T09:17:38;101570.19;;;28.25;100.00
54308;BME280;40208;39.778;2.710;2022-07-23T09:20:23;101566.63;;;28.33;100.00
54308;BME280;40208;39.778;2.710;2022-07-23T09:23:08;101532.66;;;28.19;100.00
54308;BME280;40208;39.778;2.710;2022-07-23T09:25:53;101535.41;;;28.27;100.00
54308;BME280;40208;39.778;2.710;2022-07-23T09:28:54;101582.91;;;28.59;100.00
54308;BME280;40208;39.778;2.710;2022-07-23T09:31:53;101543.97;;;28.41;100.00
54308;BME280;40208;39.778;2.710;2022-07-23T09:34:38;101552.03;;;28.59;100.00
54308;BME280;40208;39.778;2.710;2022-07-23T09:37:23;101581.44;;;28.89;100.00
54308;BME280;40208;39.778;2.710;2022-07-23T09:40:10;101568.28;;;28.93;100.00
54308;BME280;40208;39.778;2.710;2022-07-23T09:42:57;101577.34;;;29.18;100.00
54308;BME280;40208;39.778;2.710;2022-07-23T09:45:42;101582.31;;;29.23;100.00
54308;BME280;40208;39.778;2.710;2022-07-23T09:48:27;101587.41;;;29.26;100.00
54308;BME280;40208;39.778;2.710;2022-07-23T09:51:12;101583.69;;;29.27;100.00
54308;BME280;40208;39.778;2.710;2022-07-23T09:54:00;101557.19;;;29.11;100.00
54308;BME280;40208;39.778;2.710;2022-07-23T09:56:46;101471.63;;;28.69;100.00
54308;BME280;40208;39.778;2.710;2022-07-23T09:59:35;101549.34;;;29.24;100.00
54308;BME280;40208;39.778;2.710;2022-07-23T10:02:21;101561.63;;;29.28;100.00
54308;BME280;40208;39.778;2.710;2022-07-23T10:05:07;101588.78;;;29.46;100.00
54308;BME280;40208;39.778;2.710;2022-07-23T10:07:52;101593.38;;;29.46;100.00
54308;BME280;40208;39.778;2.710;2022-07-23T10:10:39;101576.97;;;29.46;100.00
54308;BME280;40208;39.778;2.710;2022-07-23T10:13:25;101564.84;;;29.48;100.00
54308;BME280;40208;39.778;2.710;2022-07-23T10:16:42;101575.94;;;29.55;100.00
54308;BME280;40208;39.778;2.710;2022-07-23T10:19:28;101567.22;;;29.51;100.00
54308;BME280;40208;39.778;2.710;2022-07-23T10:22:47;101578.16;;;29.59;100.00
54308;BME280;40208;39.778;2.710;2022-07-23T10:25:59;101571.16;;;29.57;100.00
54308;BME280;40208;39.778;2.710;2022-07-23T10:34:55;101542.25;;;29.54;100.00
54308;BME280;40208;39.778;2.710;2022-07-23T10:37:47;101553.53;;;29.68;100.00
54308;BME280;40208;39.778;2.710;2022-07-23T10:40:32;101587.31;;;29.91;100.00
54308;BME280;40208;39.778;2.710;2022-07-23T10:43:16;101584.88;;;29.96;100.00
54308;BME280;40208;39.778;2.710;2022-07-23T10:46:21;101587.63;;;29.96;100.00
54308;BME280;40208;39.778;2.710;2022-07-23T10:49:22;101557.03;;;29.85;100.00
54308;BME280;40208;39.778;2.710;2022-07-23T10:57:48;101589.91;;;30.16;100.00
54308;BME280;40208;39.778;2.710;2022-07-23T11:00:35;101599.13;;;30.23;100.00
54308;BME280;40208;39.778;2.710;2022-07-23T11:03:32;101570.44;;;30.11;100.00
54308;BME280;40208;39.778;2.710;2022-07-23T11:06:17;101547.91;;;30.00;100.00
54308;BME280;40208;39.778;2.710;2022-07-23T11:09:29;101587.94;;;30.41;100.00
54308;BME280;40208;39.778;2.710;2022-07-23T11:15:13;101591.13;;;30.53;100.00
54308;BME280;40208;39.778;2.710;2022-07-23T11:17:59;101587.34;;;30.54;100.00
54308;BME280;40208;39.778;2.710;2022-07-23T11:20:45;101584.94;;;30.59;100.00
54308;BME280;40208;39.778;2.710;2022-07-23T11:24:06;101583.41;;;30.56;100.00
54308;BME280;40208;39.778;2.710;2022-07-23T11:26:59;101492.88;;;29.95;100.00
54308;BME280;40208;39.778;2.710;2022-07-23T11:29:45;101577.25;;;30.54;100.00
54308;BME280;40208;39.778;2.710;2022-07-23T11:32:33;101429.00;;;29.64;100.00
54308;BME280;40208;39.778;2.710;2022-07-23T11:35:21;101572.03;;;30.45;100.00
54308;BME280;40208;39.778;2.710;2022-07-23T11:38:08;101503.03;;;30.10;100.00
54308;BME280;40208;39.778;2.710;2022-07-23T11:40:57;101563.66;;;30.38;100.00
54308;BME280;40208;39.778;2.710;2022-07-23T11:43:42;101566.75;;;30.35;100.00
54308;BME280;40208;39.778;2.710;2022-07-23T11:46:27;101556.00;;;30.25;100.00
54308;BME280;40208;39.778;2.710;2022-07-23T11:49:12;101570.00;;;30.38;100.00
54308;BME280;40208;39.778;2.710;2022-07-23T11:55:11;101571.44;;;30.26;100.00
54308;BME280;40208;39.778;2.710;2022-07-23T11:57:57;101562.00;;;30.20;100.00
54308;BME280;40208;39.778;2.710;2022-07-23T12:00:42;101563.72;;;30.21;100.00
54308;BME280;40208;39.778;2.710;2022-07-23T12:03:27;101529.06;;;30.06;100.00
54308;BME280;40208;39.778;2.710;2022-07-23T12:06:11;101557.38;;;30.29;100.00
54308;BME280;40208;39.778;2.710;2022-07-23T12:08:56;101515.69;;;30.11;99.78
54308;BME280;40208;39.778;2.710;2022-07-23T12:12:00;101537.53;;;30.27;100.00
54308;BME280;40208;39.778;2.710;2022-07-23T12:14:57;101559.72;;;30.40;98.21
54308;BME280;40208;39.778;2.710;2022-07-23T12:17:45;101544.13;;;30.41;97.36
54308;BME280;40208;39.778;2.710;2022-07-23T12:20:33;101540.84;;;30.46;96.78
54308;BME280;40208;39.778;2.710;2022-07-23T12:23:20;101493.25;;;30.15;97.75
54308;BME280;40208;39.778;2.710;2022-07-23T12:26:06;101447.78;;;29.83;97.47
54308;BME280;40208;39.778;2.710;2022-07-23T12:28:52;101523.44;;;30.38;95.24
54308;BME280;40208;39.778;2.710;2022-07-23T12:31:38;101541.88;;;30.45;93.90
54308;BME280;40208;39.778;2.710;2022-07-23T12:34:23;101533.66;;;30.45;92.04
54308;BME280;40208;39.778;2.710;2022-07-23T12:37:23;101438.16;;;29.87;93.45
54308;BME280;40208;39.778;2.710;2022-07-23T12:43:10;101521.84;;;30.44;88.88
54308;BME280;40208;39.778;2.710;2022-07-23T12:48:52;101532.56;;;30.54;91.97
54308;BME280;40208;39.778;2.710;2022-07-23T12:51:39;101527.94;;;30.54;88.48
54308;BME280;40208;39.778;2.710;2022-07-23T12:54:27;101499.06;;;30.43;87.93
54308;BME280;40208;39.778;2.710;2022-07-23T12:57:12;101505.91;;;30.48;90.03
54308;BME280;40208;39.778;2.710;2022-07-23T13:00:08;101529.94;;;30.60;91.40
54308;BME280;40208;39.778;2.710;2022-07-23T13:02:54;101527.41;;;30.59;91.22
54308;BME280;40208;39.778;2.710;2022-07-23T13:05:38;101475.72;;;30.25;92.88
54308;BME280;40208;39.778;2.710;2022-07-23T13:08:26;101449.31;;;30.09;92.02
54308;BME280;40208;39.778;2.710;2022-07-23T13:11:11;101526.91;;;30.55;90.84
54308;BME280;40208;39.778;2.710;2022-07-23T13:13:55;101533.34;;;30.62;91.37
54308;BME280;40208;39.778;2.710;2022-07-23T13:16:41;101527.56;;;30.57;91.92
54308;BME280;40208;39.778;2.710;2022-07-23T13:19:27;101542.53;;;30.70;92.23
54308;BME280;40208;39.778;2.710;2022-07-23T13:22:11;101528.66;;;30.71;91.84
54308;BME280;40208;39.778;2.710;2022-07-23T13:24:56;101505.47;;;30.59;91.80
54308;BME280;40208;39.778;2.710;2022-07-23T13:27:41;101535.28;;;30.77;91.50
54308;BME280;40208;39.778;2.710;2022-07-23T13:30:26;101513.06;;;30.72;92.10
54308;BME280;40208;39.778;2.710;2022-07-23T13:33:11;101502.00;;;30.65;92.46
54308;BME280;40208;39.778;2.710;2022-07-23T13:35:56;101427.66;;;30.22;91.89
54308;BME280;40208;39.778;2.710;2022-07-23T13:38:41;101443.31;;;30.36;90.62
54308;BME280;40208;39.778;2.710;2022-07-23T13:41:25;101519.97;;;30.91;90.48
54308;BME280;40208;39.778;2.710;2022-07-23T13:44:10;101529.66;;;31.01;90.00
54308;BME280;40208;39.778;2.710;2022-07-23T13:46:55;101499.09;;;30.81;87.46
54308;BME280;40208;39.778;2.710;2022-07-23T13:49:40;101511.78;;;30.82;87.19
54308;BME280;40208;39.778;2.710;2022-07-23T13:52:25;101533.66;;;30.91;86.27
54308;BME280;40208;39.778;2.710;2022-07-23T13:55:10;101448.13;;;30.34;85.45
54308;BME280;40208;39.778;2.710;2022-07-23T13:57:55;101525.16;;;30.85;83.83
54308;BME280;40208;39.778;2.710;2022-07-23T14:00:43;101532.63;;;30.92;83.64
54308;BME280;40208;39.778;2.710;2022-07-23T14:03:28;101527.25;;;30.98;81.82
54308;BME280;40208;39.778;2.710;2022-07-23T14:06:13;101489.75;;;30.76;79.75
54308;BME280;40208;39.778;2.710;2022-07-23T14:08:58;101499.09;;;30.81;79.91
54308;BME280;40208;39.778;2.710;2022-07-23T14:11:43;101505.75;;;30.87;81.59
54308;BME280;40208;39.778;2.710;2022-07-23T14:14:28;101528.84;;;30.93;79.36
54308;BME280;40208;39.778;2.710;2022-07-23T14:17:13;101497.00;;;30.69;80.29
54308;BME280;40208;39.778;2.710;2022-07-23T14:19:58;101519.00;;;30.83;80.58
54308;BME280;40208;39.778;2.710;2022-07-23T14:22:43;101495.53;;;30.58;82.74
54308;BME280;40208;39.778;2.710;2022-07-23T14:25:28;101527.50;;;30.89;84.29
54308;BME280;40208;39.778;2.710;2022-07-23T14:28:13;101501.69;;;30.83;86.82
54308;BME280;40208;39.778;2.710;2022-07-23T14:30:57;101523.94;;;31.03;87.14
54308;BME280;40208;39.778;2.710;2022-07-23T14:33:42;101481.59;;;30.91;85.97
54308;BME280;40208;39.778;2.710;2022-07-23T14:36:27;101517.56;;;31.25;83.94
54308;BME280;40208;39.778;2.710;2022-07-23T14:39:12;101520.88;;;31.36;84.22
54308;BME280;40208;39.778;2.710;2022-07-23T14:41:57;101512.78;;;31.42;84.67
54308;BME280;40208;39.778;2.710;2022-07-23T14:44:42;101487.28;;;31.34;80.58